Time,TemperatureF,DewpointF,PressureIn,WindDirection,WindDirectionDegrees,WindSpeedMPH,WindSpeedGustMPH,Humidity,HourlyPrecipIn,Conditions,Clouds,dailyrainin,SoftwareType,DateUTC
2017-11-24 00:00:00,47.4,46.9,30.13,North,32767,-999.9,0.0,98,0.00,,,0.00,Wunderground v.1.15,2017-11-24 08:00:00,
2017-11-24 00:10:00,47.2,46.7,30.12,North,32767,-999.9,0.0,98,0.00,,,0.00,Wunderground v.1.15,2017-11-24 08:10:00,
2017-11-24 00:20:00,46.8,46.3,30.12,North,32767,-999.9,0.0,98,0.00,,,0.00,Wunderground v.1.15,2017-11-24 08:20:00,
2017-11-24 00:30:00,46.7,46.2,30.12,North,32767,-999.9,0.0,98,0.00,,,0.00,Wunderground v.1.15,2017-11-24 08:30:00,
2017-11-24 00:40:00,46.5,46.0,30.13,North,32767,-999.9,0.0,98,0.00,,,0.00,Wunderground v.1.15,2017-11-24 08:40:00,
2017-11-24 00:50:00,46.6,46.1,30.13,North,32767,-999.9,0.0,98,0.00,,,0.00,Wunderground v.1.15,2017-11-24 08:50:00,
2017-11-24 01:00:00,46.9,46.4,30.13,North,32767,-999.9,0.0,98,0.00,,,0.00,Wunderground v.1.15,2017-11-24 09:00:00,
2017-11-24 01:10:00,47.3,47.0,30.13,North,32767,-999.9,0.0,99,0.00,,,0.00,Wunderground v.1.15,2017-11-24 09:10:00,
2017-11-24 01:20:00,47.6,47.1,30.12,North,32767,-999.9,0.0,98,0.00,,,0.01,Wunderground v.1.15,2017-11-24 09:20:00,
2017-11-24 01:30:00,47.7,47.2,30.13,North,32767,-999.9,0.0,98,0.00,,,0.01,Wunderground v.1.15,2017-11-24 09:30:00,
2017-11-24 01:40:00,47.8,47.5,30.13,North,32767,-999.9,0.0,99,0.00,,,0.01,Wunderground v.1.15,2017-11-24 09:40:00,
2017-11-24 01:50:00,47.9,47.6,30.13,North,32767,-999.9,0.0,99,0.00,,,0.01,Wunderground v.1.15,2017-11-24 09:50:00,
2017-11-24 02:00:00,47.9,47.6,30.13,North,32767,-999.9,0.0,99,0.00,,,0.01,Wunderground v.1.15,2017-11-24 10:00:00,
2017-11-24 02:10:00,48.0,47.7,30.13,North,32767,-999.9,0.0,99,0.00,,,0.01,Wunderground v.1.15,2017-11-24 10:10:00,
2017-11-24 02:15:00,48.2,47.9,30.14,North,32767,-999.9,0.0,99,0.00,,,0.01,Wunderground v.1.15,2017-11-24 10:15:00,
2017-11-24 02:25:00,48.3,48.0,30.14,North,32767,-999.9,0.0,99,0.00,,,0.01,Wunderground v.1.15,2017-11-24 10:25:00,
2017-11-24 02:35:00,48.3,48.0,30.14,North,32767,-999.9,0.0,99,0.00,,,0.01,Wunderground v.1.15,2017-11-24 10:35:00,
2017-11-24 02:45:00,48.0,47.7,30.15,North,32767,-999.9,0.0,99,0.00,,,0.01,Wunderground v.1.15,2017-11-24 10:45:00,
2017-11-24 02:55:00,47.9,47.6,30.15,North,32767,-999.9,0.0,99,0.00,,,0.01,Wunderground v.1.15,2017-11-24 10:55:00,
2017-11-24 03:00:00,47.8,47.5,30.15,North,32767,-999.9,0.0,99,0.00,,,0.01,Wunderground v.1.15,2017-11-24 11:00:00,
2017-11-24 03:10:00,47.7,47.2,30.14,North,32767,-999.9,0.0,98,0.00,,,0.01,Wunderground v.1.15,2017-11-24 11:10:00,
2017-11-24 03:15:00,47.6,47.1,30.14,North,32767,-999.9,0.0,98,0.00,,,0.01,Wunderground v.1.15,2017-11-24 11:15:00,
2017-11-24 03:25:00,47.4,46.9,30.14,North,32767,-999.9,0.0,98,0.00,,,0.01,Wunderground v.1.15,2017-11-24 11:25:00,
2017-11-24 03:35:00,47.3,47.0,30.14,North,32767,-999.9,0.0,99,0.00,,,0.01,Wunderground v.1.15,2017-11-24 11:35:00,
2017-11-24 03:45:00,47.4,47.1,30.14,North,32767,-999.9,0.0,99,0.00,,,0.01,Wunderground v.1.15,2017-11-24 11:45:00,
2017-11-24 03:55:00,47.4,47.1,30.14,North,32767,-999.9,0.0,99,0.00,,,0.01,Wunderground v.1.15,2017-11-24 11:55:00,
2017-11-24 04:10:00,47.4,47.1,30.14,North,32767,-999.9,0.0,99,0.00,,,0.01,Wunderground v.1.15,2017-11-24 12:10:00,
2017-11-24 04:15:00,47.4,47.1,30.14,North,32767,-999.9,0.0,99,0.00,,,0.01,Wunderground v.1.15,2017-11-24 12:15:00,
2017-11-24 04:25:00,47.4,47.1,30.14,North,32767,-999.9,0.0,99,0.00,,,0.01,Wunderground v.1.15,2017-11-24 12:25:00,
2017-11-24 04:30:00,47.5,47.2,30.15,North,32767,-999.9,0.0,99,0.00,,,0.01,Wunderground v.1.15,2017-11-24 12:30:00,
2017-11-24 04:45:00,47.5,47.2,30.14,North,32767,-999.9,0.0,99,0.00,,,0.01,Wunderground v.1.15,2017-11-24 12:45:00,
2017-11-24 04:55:00,47.4,47.1,30.15,North,32767,-999.9,0.0,99,0.00,,,0.01,Wunderground v.1.15,2017-11-24 12:55:00,
2017-11-24 05:00:00,47.4,47.1,30.15,North,32767,-999.9,0.0,99,0.00,,,0.01,Wunderground v.1.15,2017-11-24 13:00:00,
2017-11-24 05:10:00,47.2,46.7,30.15,North,32767,-999.9,0.0,98,0.00,,,0.01,Wunderground v.1.15,2017-11-24 13:10:00,
2017-11-24 05:20:00,47.0,46.5,30.15,North,32767,-999.9,0.0,98,0.00,,,0.01,Wunderground v.1.15,2017-11-24 13:20:00,
2017-11-24 05:25:00,46.9,46.4,30.15,North,32767,-999.9,0.0,98,0.00,,,0.01,Wunderground v.1.15,2017-11-24 13:25:00,
2017-11-24 05:35:00,46.7,46.4,30.15,North,32767,-999.9,0.0,99,0.00,,,0.01,Wunderground v.1.15,2017-11-24 13:35:00,
2017-11-24 05:45:00,46.5,46.0,30.15,North,32767,-999.9,0.0,98,0.00,,,0.01,Wunderground v.1.15,2017-11-24 13:45:00,
2017-11-24 05:55:00,46.5,46.0,30.15,North,32767,-999.9,0.0,98,0.00,,,0.01,Wunderground v.1.15,2017-11-24 13:55:00,
2017-11-24 06:00:00,46.5,46.0,30.15,North,32767,-999.9,0.0,98,0.00,,,0.01,Wunderground v.1.15,2017-11-24 14:00:00,
2017-11-24 06:10:00,46.5,46.0,30.15,North,32767,-999.9,0.0,98,0.00,,,0.02,Wunderground v.1.15,2017-11-24 14:10:00,
2017-11-24 06:15:00,46.6,46.1,30.15,North,32767,-999.9,0.0,98,0.07,,,0.03,Wunderground v.1.15,2017-11-24 14:15:00,
2017-11-24 06:20:00,46.6,46.3,30.15,North,32767,-999.9,0.0,99,0.06,,,0.03,Wunderground v.1.15,2017-11-24 14:20:00,
2017-11-24 06:30:00,46.6,46.1,30.15,North,32767,-999.9,0.0,98,0.00,,,0.03,Wunderground v.1.15,2017-11-24 14:30:00,
2017-11-24 06:40:00,46.4,45.9,30.15,North,32767,-999.9,0.0,98,0.00,,,0.03,Wunderground v.1.15,2017-11-24 14:40:00,
2017-11-24 06:50:00,46.1,45.6,30.14,North,32767,-999.9,0.0,98,0.00,,,0.03,Wunderground v.1.15,2017-11-24 14:50:00,
2017-11-24 06:55:00,45.9,45.4,30.15,North,32767,-999.9,0.0,98,0.00,,,0.03,Wunderground v.1.15,2017-11-24 14:55:00,
2017-11-24 07:00:00,45.6,45.1,30.14,North,32767,-999.9,0.0,98,0.00,,,0.03,Wunderground v.1.15,2017-11-24 15:00:00,
2017-11-24 07:10:00,45.4,44.9,30.14,North,32767,-999.9,0.0,98,0.00,,,0.03,Wunderground v.1.15,2017-11-24 15:10:00,
2017-11-24 07:20:00,45.0,44.5,30.14,North,32767,-999.9,0.0,98,0.00,,,0.03,Wunderground v.1.15,2017-11-24 15:20:00,
2017-11-24 07:30:00,44.5,44.0,30.14,North,32767,-999.9,0.0,98,0.00,,,0.03,Wunderground v.1.15,2017-11-24 15:30:00,
2017-11-24 07:40:00,44.4,43.9,30.14,North,32767,-999.9,0.0,98,0.00,,,0.03,Wunderground v.1.15,2017-11-24 15:40:00,
2017-11-24 07:45:00,44.6,44.1,30.14,North,32767,-999.9,0.0,98,0.00,,,0.03,Wunderground v.1.15,2017-11-24 15:45:00,
2017-11-24 07:55:00,45.2,44.7,30.14,North,32767,-999.9,0.0,98,0.00,,,0.03,Wunderground v.1.15,2017-11-24 15:55:00,
2017-11-24 08:00:00,45.3,44.8,30.14,North,32767,-999.9,0.0,98,0.00,,,0.03,Wunderground v.1.15,2017-11-24 16:00:00,
2017-11-24 08:10:00,45.2,44.7,30.14,North,32767,-999.9,0.0,98,0.00,,,0.03,Wunderground v.1.15,2017-11-24 16:10:00,
2017-11-24 08:20:00,45.1,44.6,30.14,North,32767,-999.9,0.0,98,0.00,,,0.03,Wunderground v.1.15,2017-11-24 16:20:00,
2017-11-24 08:25:00,45.0,44.7,30.15,SE,126,0.0,0.0,99,0.00,,,0.03,Wunderground v.1.15,2017-11-24 16:25:00,
2017-11-24 08:35:00,44.6,44.1,30.15,SE,126,0.0,0.0,98,0.00,,,0.03,Wunderground v.1.15,2017-11-24 16:35:00,
2017-11-24 08:45:00,44.5,44.0,30.14,SSE,150,0.0,0.0,98,0.00,,,0.03,Wunderground v.1.15,2017-11-24 16:45:00,
2017-11-24 08:55:00,44.7,44.2,30.15,SE,130,0.0,3.0,98,0.00,,,0.03,Wunderground v.1.15,2017-11-24 16:55:00,
2017-11-24 09:00:00,44.9,44.6,30.15,SE,130,0.0,0.0,99,0.00,,,0.03,Wunderground v.1.15,2017-11-24 17:00:00,
2017-11-24 09:10:00,45.4,44.9,30.15,SE,130,0.0,0.0,98,0.00,,,0.03,Wunderground v.1.15,2017-11-24 17:10:00,
2017-11-24 09:15:00,45.9,45.6,30.15,SE,130,0.0,0.0,99,0.00,,,0.03,Wunderground v.1.15,2017-11-24 17:15:00,
2017-11-24 09:25:00,46.4,46.1,30.14,WNW,299,0.0,0.0,99,0.00,,,0.03,Wunderground v.1.15,2017-11-24 17:25:00,
2017-11-24 09:35:00,47.2,46.9,30.14,WNW,299,0.0,0.0,99,0.00,,,0.03,Wunderground v.1.15,2017-11-24 17:35:00,
2017-11-24 09:45:00,47.7,47.4,30.15,WNW,299,0.0,0.0,99,0.00,,,0.03,Wunderground v.1.15,2017-11-24 17:45:00,
2017-11-24 09:50:00,48.2,47.9,30.15,WNW,299,0.0,0.0,99,0.00,,,0.03,Wunderground v.1.15,2017-11-24 17:50:00,
2017-11-24 10:00:00,48.6,48.3,30.15,WNW,299,0.0,0.0,99,0.00,,,0.03,Wunderground v.1.15,2017-11-24 18:00:00,
2017-11-24 10:10:00,48.5,48.0,30.15,WNW,299,0.0,0.0,98,0.00,,,0.03,Wunderground v.1.15,2017-11-24 18:10:00,
2017-11-24 10:15:00,48.9,48.4,30.15,NE,44,0.0,0.0,98,0.00,,,0.03,Wunderground v.1.15,2017-11-24 18:15:00,
2017-11-24 10:25:00,49.2,48.7,30.15,NE,44,0.0,0.0,98,0.00,,,0.03,Wunderground v.1.15,2017-11-24 18:25:00,
2017-11-24 10:30:00,49.4,48.9,30.15,NE,44,0.0,0.0,98,0.00,,,0.03,Wunderground v.1.15,2017-11-24 18:30:00,
2017-11-24 10:40:00,50.2,49.7,30.14,NNW,347,0.0,0.0,98,0.00,,,0.03,Wunderground v.1.15,2017-11-24 18:40:00,
2017-11-24 10:50:00,50.9,49.8,30.14,SE,133,0.0,0.0,96,0.00,,,0.03,Wunderground v.1.15,2017-11-24 18:50:00,
2017-11-24 10:55:00,51.1,49.7,30.15,ESE,123,0.0,0.0,95,0.00,,,0.03,Wunderground v.1.15,2017-11-24 18:55:00,
2017-11-24 11:00:00,50.7,49.3,30.15,ESE,123,0.0,0.0,95,0.00,,,0.03,Wunderground v.1.15,2017-11-24 19:00:00,
2017-11-24 11:10:00,51.0,49.6,30.15,ESE,123,0.0,0.0,95,0.00,,,0.03,Wunderground v.1.15,2017-11-24 19:10:00,
2017-11-24 11:15:00,51.0,49.6,30.15,ESE,123,0.0,0.0,95,0.00,,,0.03,Wunderground v.1.15,2017-11-24 19:15:00,
2017-11-24 11:25:00,51.4,50.0,30.14,NW,317,0.0,0.0,95,0.00,,,0.03,Wunderground v.1.15,2017-11-24 19:25:00,
2017-11-24 11:35:00,51.7,49.7,30.13,NNW,346,0.0,1.0,93,0.00,,,0.03,Wunderground v.1.15,2017-11-24 19:35:00,
2017-11-24 11:40:00,51.4,49.4,30.12,NNW,346,0.0,0.0,93,0.00,,,0.03,Wunderground v.1.15,2017-11-24 19:40:00,
2017-11-24 11:50:00,51.3,49.3,30.12,NNW,346,0.0,0.0,93,0.00,,,0.03,Wunderground v.1.15,2017-11-24 19:50:00,
2017-11-24 11:55:00,51.8,49.3,30.11,NNW,346,0.0,0.0,91,0.00,,,0.03,Wunderground v.1.15,2017-11-24 19:55:00,
2017-11-24 12:00:00,51.7,48.9,30.11,NNW,346,0.0,0.0,90,0.00,,,0.03,Wunderground v.1.15,2017-11-24 20:00:00,
2017-11-24 12:10:00,52.5,49.9,30.11,NNW,346,0.0,0.0,91,0.00,,,0.03,Wunderground v.1.15,2017-11-24 20:10:00,
2017-11-24 12:20:00,53.4,49.0,30.11,NNW,346,0.0,0.0,85,0.00,,,0.03,Wunderground v.1.15,2017-11-24 20:20:00,
2017-11-24 12:30:00,54.3,49.2,30.11,ENE,66,0.0,0.0,83,0.00,,,0.03,Wunderground v.1.15,2017-11-24 20:30:00,
2017-11-24 12:40:00,52.5,49.0,30.11,ENE,66,0.0,0.0,88,0.00,,,0.03,Wunderground v.1.15,2017-11-24 20:40:00,
2017-11-24 12:50:00,51.0,48.5,30.10,ENE,66,0.0,0.0,91,0.00,,,0.03,Wunderground v.1.15,2017-11-24 20:50:00,
2017-11-24 13:00:00,51.5,48.1,30.10,North,11,0.0,0.0,88,0.00,,,0.03,Wunderground v.1.15,2017-11-24 21:00:00,
2017-11-24 13:10:00,51.3,48.8,30.10,North,11,0.0,0.0,91,0.00,,,0.03,Wunderground v.1.15,2017-11-24 21:10:00,
2017-11-24 13:20:00,50.7,48.7,30.09,North,11,0.0,0.0,93,0.00,,,0.03,Wunderground v.1.15,2017-11-24 21:20:00,
2017-11-24 13:30:00,50.6,48.1,30.09,North,11,0.0,0.0,91,0.00,,,0.03,Wunderground v.1.15,2017-11-24 21:30:00,
2017-11-24 13:40:00,50.8,48.6,30.09,North,11,0.0,0.0,92,0.00,,,0.03,Wunderground v.1.15,2017-11-24 21:40:00,
2017-11-24 13:50:00,51.0,48.8,30.08,North,11,0.0,0.0,92,0.00,,,0.03,Wunderground v.1.15,2017-11-24 21:50:00,
2017-11-24 14:00:00,50.8,48.3,30.08,North,11,0.0,0.0,91,0.00,,,0.03,Wunderground v.1.15,2017-11-24 22:00:00,
2017-11-24 14:10:00,50.4,48.2,30.08,North,11,0.0,0.0,92,0.00,,,0.03,Wunderground v.1.15,2017-11-24 22:10:00,
2017-11-24 14:20:00,50.1,47.9,30.08,North,11,0.0,0.0,92,0.00,,,0.03,Wunderground v.1.15,2017-11-24 22:20:00,